Time;durP1;ratioP1;P1;durP2;ratioP2;P2;SDS_P1;SDS_P2;PMS_P1;PMS_P2;Temp;Humidity;BMP_temperature;BMP_pressure;BME280_temperature;BME280_humidity;BME280_pressure;Samples;Min_cycle;Max_cycle;Signal;HPM_P1;HPM_P2
2023/01/22 00:02:23;96183.00;0.32;166.98;0.00;0.00;0.62;;;;;6.00;1.00;;;;;;2274036;55;3743;-91
2023/01/22 00:04:50;114403.00;0.38;198.43;0.00;0.00;0.62;;;;;5.90;1.00;;;;;;2260200;61;1595;-89
2023/01/22 00:07:18;96815.00;0.32;168.07;0.00;0.00;0.62;;;;;5.80;1.00;;;;;;2260089;61;1099;-89
2023/01/22 00:12:15;464965.00;1.55;801.53;0.00;0.00;0.62;;;;;6.50;1.00;;;;;;2265840;61;1961;-89
2023/01/22 00:14:43;235134.00;0.78;406.38;0.00;0.00;0.62;;;;;5.90;1.00;;;;;;2260043;61;1110;-89
2023/01/22 00:17:10;122220.00;0.41;211.91;0.00;0.00;0.62;;;;;6.10;1.00;;;;;;2260102;61;2229;-88
2023/01/22 00:19:37;233525.00;0.78;403.61;0.00;0.00;0.62;;;;;5.90;1.00;;;;;;2260216;61;2131;-87
2023/01/22 00:22:09;224212.00;0.75;387.59;0.00;0.00;0.62;;;;;6.00;1.00;;;;;;2260118;61;1006;-88
2023/01/22 00:24:36;216048.00;0.72;373.54;0.00;0.00;0.62;;;;;5.40;1.00;;;;;;2260175;61;1275;-87
2023/01/22 00:27:03;220655.00;0.74;381.47;15180.00;0.05;26.92;;;;;4.80;1.00;;;;;;2260249;61;1015;-87
2023/01/22 00:29:31;413096.00;1.38;712.32;69108.00;0.23;120.22;;;;;4.50;1.00;;;;;;2260175;61;1081;-88
2023/01/22 00:31:58;676829.00;2.26;1167.08;0.00;0.00;0.62;;;;;4.40;1.00;;;;;;2260089;61;2259;-87
2023/01/22 00:34:25;602302.00;2.01;1038.19;0.00;0.00;0.62;;;;;4.10;1.00;;;;;;2260207;61;1380;-88
2023/01/22 00:39:21;527449.00;1.76;909.10;0.00;0.00;0.62;;;;;4.00;1.00;;;;;;2265479;61;1304;-87
2023/01/22 00:41:49;659125.00;2.20;1136.43;13712.00;0.05;24.38;;;;;4.00;1.00;;;;;;2264071;61;1546;-87
2023/01/22 00:44:16;953499.00;3.18;1650.28;32323.00;0.11;56.60;;;;;4.00;1.00;;;;;;2260588;61;1295;-89
2023/01/22 00:46:44;1096655.00;3.66;1904.44;52790.00;0.18;92.01;;;;;3.90;1.00;;;;;;2260097;61;971;-87
2023/01/22 00:49:12;1568580.00;5.23;2772.84;117869.00;0.39;204.41;;;;;3.60;1.00;;;;;;2260144;61;1742;-87
2023/01/22 00:51:39;1145012.00;3.82;1991.11;95167.00;0.32;165.23;;;;;3.50;1.00;;;;;;2260158;61;1998;-89
2023/01/22 00:54:06;957276.00;3.19;1656.95;10392.00;0.03;18.63;;;;;3.20;1.00;;;;;;2260099;61;1281;-88
2023/01/22 00:56:35;997816.00;3.33;1728.60;30770.00;0.10;53.92;;;;;3.10;1.00;;;;;;2259967;61;1573;-89
2023/01/22 00:59:08;2027802.00;6.76;3681.57;123420.00;0.41;213.98;;;;;3.10;1.00;;;;;;2260109;61;1056;-87
2023/01/22 01:01:36;808394.00;2.69;1395.77;18343.00;0.06;32.40;;;;;3.10;1.00;;;;;;2260066;61;2082;-88
2023/01/22 01:04:04;918390.00;3.06;1588.44;79863.00;0.27;138.80;;;;;3.20;1.00;;;;;;2260027;61;1392;-87
2023/01/22 01:06:31;975242.00;3.25;1688.67;66574.00;0.22;115.84;;;;;3.50;1.00;;;;;;2260053;61;1033;-87
2023/01/22 01:08:58;1527034.00;5.09;2694.09;134737.00;0.45;233.50;;;;;3.20;1.00;;;;;;2259990;61;1069;-89
2023/01/22 01:11:26;1434872.00;4.78;2521.16;118779.00;0.40;205.98;;;;;3.20;1.00;;;;;;2259889;61;2004;-88
2023/01/22 01:13:53;1593299.00;5.31;2819.94;143433.00;0.48;248.49;;;;;3.40;1.00;;;;;;2259971;61;2397;-88
2023/01/22 01:16:22;1748873.00;5.83;3120.78;141129.00;0.47;244.52;;;;;3.60;1.00;;;;;;2259902;61;1555;-91
2023/01/22 01:18:50;1637821.00;5.46;2905.24;164291.00;0.55;284.43;;;;;3.60;1.00;;;;;;2259886;61;1608;-88
2023/01/22 01:21:19;789420.00;2.63;1362.68;106873.00;0.36;185.43;;;;;3.60;1.00;;;;;;2260031;61;1052;-89
2023/01/22 01:23:46;840660.00;2.80;1452.13;100590.00;0.34;174.59;;;;;3.80;1.00;;;;;;2259819;61;1628;-86
2023/01/22 01:26:15;857163.00;2.86;1481.01;111170.00;0.37;192.85;;;;;3.70;1.00;;;;;;2260086;61;908;-88
2023/01/22 01:28:44;576097.00;1.92;992.96;98935.00;0.33;171.73;;;;;3.60;1.00;;;;;;2260059;61;1133;-87
2023/01/22 01:31:12;713106.00;2.38;1229.97;100892.00;0.34;175.11;;;;;3.70;1.00;;;;;;2259954;61;1998;-87
2023/01/22 01:33:40;558176.00;1.86;962.06;100445.00;0.33;174.34;;;;;3.80;1.00;;;;;;2260491;61;1278;-88
2023/01/22 01:36:10;737532.00;2.46;1272.39;143297.00;0.48;248.25;;;;;4.00;1.00;;;;;;2260710;61;1546;-88
2023/01/22 01:38:38;701486.00;2.34;1209.82;94869.00;0.32;164.71;;;;;3.80;1.00;;;;;;2260674;61;961;-90
2023/01/22 01:41:06;606398.00;2.02;1045.27;105169.00;0.35;182.49;;;;;4.00;1.00;;;;;;2260723;61;905;-89
2023/01/22 01:43:33;652976.00;2.18;1125.79;99090.00;0.33;172.00;;;;;4.00;1.00;;;;;;2260566;61;2303;-88
2023/01/22 01:46:02;558864.00;1.86;963.24;101085.00;0.34;175.44;;;;;4.00;1.00;;;;;;2260559;61;1820;-90
2023/01/22 01:48:34;373950.00;1.25;645.03;83295.00;0.28;144.73;;;;;3.90;1.00;;;;;;2260561;61;1151;-89
2023/01/22 01:51:07;436373.00;1.45;752.35;76332.00;0.25;132.70;;;;;4.10;1.00;;;;;;2260687;61;939;-87
2023/01/22 01:53:35;123277232.00;410.92;75898904.00;97462.00;0.32;169.19;;;;;4.00;1.00;;;;;;2260547;61;1432;-89
2023/01/22 01:56:09;370762.00;1.24;639.55;103465.00;0.34;179.55;;;;;3.80;1.00;;;;;;2260609;61;1442;-87
2023/01/22 01:58:38;544279.00;1.81;938.10;82743.00;0.28;143.78;;;;;3.50;1.00;;;;;;2260549;61;2169;-88
2023/01/22 02:01:10;502074.00;1.67;865.39;99612.00;0.33;172.90;;;;;3.60;1.00;;;;;;2260429;61;1455;-88
2023/01/22 02:03:38;583533.00;1.95;1005.80;103100.00;0.34;178.92;;;;;3.80;1.00;;;;;;2260555;61;1812;-89
2023/01/22 02:06:06;354355.00;1.18;611.35;97793.00;0.33;169.76;;;;;3.70;1.00;;;;;;2260564;61;1795;-88
2023/01/22 02:08:33;640118.00;2.13;1103.54;128041.00;0.43;221.95;;;;;3.60;1.00;;;;;;2260650;61;1068;-88
2023/01/22 02:11:00;173519.00;0.58;300.33;0.00;0.00;0.62;;;;;3.50;1.00;;;;;;2260581;61;1160;-87
2023/01/22 02:13:33;317370.00;1.06;547.78;12622.00;0.04;22.49;;;;;3.70;1.00;;;;;;2260367;61;2023;-91
2023/01/22 02:16:00;244509.00;0.82;422.51;0.00;0.00;0.62;;;;;3.80;1.00;;;;;;2260591;61;1118;-88
2023/01/22 02:18:28;283567.00;0.95;489.67;0.00;0.00;0.62;;;;;3.90;1.00;;;;;;2260443;61;2076;-88
2023/01/22 02:20:58;194903.00;0.65;337.15;0.00;0.00;0.62;;;;;3.70;1.00;;;;;;2260536;61;1040;-87
2023/01/22 02:23:25;321259.00;1.07;554.46;0.00;0.00;0.62;;;;;3.60;1.00;;;;;;2260430;61;1401;-87
2023/01/22 02:25:53;330117.00;1.10;569.69;0.00;0.00;0.62;;;;;3.60;1.00;;;;;;2260417;61;1080;-88
2023/01/22 02:28:20;310732.00;1.04;536.37;0.00;0.00;0.62;;;;;3.70;1.00;;;;;;2260440;61;1062;-89
2023/01/22 02:30:46;532345.00;1.77;917.53;7885.00;0.03;14.28;;;;;3.80;1.00;;;;;;2260617;61;965;-88
2023/01/22 02:33:13;216772.00;0.72;374.79;0.00;0.00;0.62;;;;;3.80;1.00;;;;;;2260466;61;1936;-87
2023/01/22 02:35:40;328639.00;1.10;567.15;0.00;0.00;0.62;;;;;3.50;1.00;;;;;;2260531;61;1515;-87
2023/01/22 02:38:09;260175.00;0.87;449.45;0.00;0.00;0.62;;;;;3.60;1.00;;;;;;2260386;61;1185;-89
2023/01/22 02:40:47;376158.00;1.25;648.82;0.00;0.00;0.62;;;;;3.70;1.00;;;;;;2260408;61;1098;-89
2023/01/22 02:43:15;340643.00;1.14;587.78;0.00;0.00;0.62;;;;;3.90;1.00;;;;;;2260289;61;1779;-89
2023/01/22 02:45:41;344708.00;1.15;594.77;0.00;0.00;0.62;;;;;3.90;1.00;;;;;;2260438;61;1103;-88
2023/01/22 02:48:09;356615.00;1.19;615.23;0.00;0.00;0.62;;;;;3.90;1.00;;;;;;2260360;61;1514;-87
2023/01/22 02:50:35;202309.00;0.67;349.90;0.00;0.00;0.62;;;;;3.70;1.00;;;;;;2260476;61;1077;-87
2023/01/22 02:53:02;286383.00;0.95;494.51;0.00;0.00;0.62;;;;;3.80;1.00;;;;;;2260208;61;2059;-89
2023/01/22 02:55:30;295076.00;0.98;509.46;0.00;0.00;0.62;;;;;3.90;1.00;;;;;;2260433;61;1099;-86
2023/01/22 02:57:57;241588.00;0.81;417.48;0.00;0.00;0.62;;;;;3.80;1.00;;;;;;2260325;61;1132;-88
2023/01/22 03:00:24;316794.00;1.06;546.79;0.00;0.00;0.62;;;;;3.80;1.00;;;;;;2260225;61;1133;-87
2023/01/22 03:02:51;247888.00;0.83;428.32;0.00;0.00;0.62;;;;;3.90;1.00;;;;;;2260291;61;1643;-86
2023/01/22 03:05:18;319188.00;1.06;550.90;0.00;0.00;0.62;;;;;3.80;1.00;;;;;;2260457;61;1103;-87
2023/01/22 03:07:45;268689.00;0.90;464.09;0.00;0.00;0.62;;;;;3.80;1.00;;;;;;2260418;61;1075;-88
2023/01/22 03:10:14;284887.00;0.95;491.94;0.00;0.00;0.62;;;;;3.70;1.00;;;;;;2260400;61;2064;-88
2023/01/22 03:23:31;257554.00;0.86;444.94;0.00;0.00;0.62;;;;;4.20;1.00;;;;;;2260275;61;1280;-87
2023/01/22 03:25:58;302853.00;1.01;522.82;0.00;0.00;0.62;;;;;4.30;1.00;;;;;;2260371;61;1624;-88
2023/01/22 03:28:25;159086.00;0.53;275.46;0.00;0.00;0.62;;;;;4.20;1.00;;;;;;2260133;61;1544;-90
2023/01/22 03:30:53;236485.00;0.79;408.70;0.00;0.00;0.62;;;;;4.20;1.00;;;;;;2260329;61;2349;-89
2023/01/22 03:33:20;260048.00;0.87;449.23;0.00;0.00;0.62;;;;;4.10;1.00;;;;;;2260085;61;2037;-88
2023/01/22 03:35:47;207134.00;0.69;358.20;0.00;0.00;0.62;;;;;4.20;1.00;;;;;;2260238;61;1716;-88
2023/01/22 03:38:14;248963.00;0.83;430.17;0.00;0.00;0.62;;;;;4.30;1.00;;;;;;2260279;61;937;-87
2023/01/22 03:40:41;324647.00;1.08;560.29;0.00;0.00;0.62;;;;;4.10;1.00;;;;;;2260305;61;1028;-87
2023/01/22 03:43:08;174060.00;0.58;301.26;0.00;0.00;0.62;;;;;4.00;1.00;;;;;;2260185;61;1703;-88
2023/01/22 03:45:35;281768.00;0.94;486.58;0.00;0.00;0.62;;;;;4.10;1.00;;;;;;2265053;40;3602;-88
2023/01/22 03:48:04;207464.00;0.69;358.77;0.00;0.00;0.62;;;;;4.20;1.00;;;;;;2264315;61;1139;-86
2023/01/22 03:50:32;218699.00;0.73;378.10;0.00;0.00;0.62;;;;;4.30;1.00;;;;;;2264188;61;1018;-87
2023/01/22 03:52:58;288545.00;0.96;498.23;0.00;0.00;0.62;;;;;4.20;1.00;;;;;;2262873;61;1991;-88
2023/01/22 03:55:25;198573.00;0.66;343.47;0.00;0.00;0.62;;;;;4.20;1.00;;;;;;2260072;61;2114;-88
2023/01/22 03:57:52;408916.00;1.36;705.13;0.00;0.00;0.62;;;;;4.00;1.00;;;;;;2260193;61;1434;-88
2023/01/22 04:00:20;223143.00;0.74;385.75;0.00;0.00;0.62;;;;;4.00;1.00;;;;;;2260206;61;1425;-90
2023/01/22 04:02:48;788740.00;2.63;1361.49;35732.00;0.12;62.50;;;;;4.10;1.00;;;;;;2260032;61;1379;-88
2023/01/22 04:05:16;881717.00;2.94;1524.03;63862.00;0.21;111.15;;;;;4.20;1.00;;;;;;2260202;61;1079;-88
2023/01/22 04:07:43;842766.00;2.81;1455.81;74608.00;0.25;129.72;;;;;4.30;1.00;;;;;;2260234;61;2351;-88
2023/01/22 04:10:11;1084791.00;3.62;1883.25;143707.00;0.48;248.96;;;;;4.20;1.00;;;;;;2260152;61;1672;-89
2023/01/22 04:12:38;815990.00;2.72;1409.02;19967.00;0.07;35.21;;;;;4.10;1.00;;;;;;2260187;61;1995;-88
2023/01/22 04:15:06;758117.00;2.53;1308.17;13360.00;0.04;23.77;;;;;4.30;1.00;;;;;;2260164;61;1362;-88
2023/01/22 04:17:33;1304690.00;4.35;2280.69;148578.00;0.50;257.36;;;;;4.40;1.00;;;;;;2260221;61;1449;-87
2023/01/22 04:19:59;1020305.00;3.40;1768.47;34782.00;0.12;60.86;;;;;4.20;1.00;;;;;;2259878;61;1041;-88
2023/01/22 04:22:28;1199194.00;4.00;2088.76;36537.00;0.12;63.90;;;;;4.20;1.00;;;;;;2260152;61;1414;-88
2023/01/22 04:24:54;1013120.00;3.38;1755.72;57767.00;0.19;100.62;;;;;4.40;1.00;;;;;;2260282;61;1081;-88
2023/01/22 04:27:21;1060783.00;3.54;1840.43;69197.00;0.23;120.37;;;;;4.40;1.00;;;;;;2260084;61;1042;-89
2023/01/22 04:29:48;1364198.00;4.55;2390.09;14252.00;0.05;25.32;;;;;4.30;1.00;;;;;;2260025;61;1576;-88
2023/01/22 04:32:15;1126001.00;3.75;1956.99;9510.00;0.03;17.10;;;;;4.30;1.00;;;;;;2260070;61;2005;-89
2023/01/22 04:34:43;1052668.00;3.51;1825.98;17754.00;0.06;31.38;;;;;4.20;1.00;;;;;;2260161;61;1036;-88
2023/01/22 04:37:10;1312347.00;4.37;2294.72;33109.00;0.11;57.96;;;;;4.10;1.00;;;;;;2260203;61;1151;-88
2023/01/22 04:39:38;1091029.00;3.64;1894.39;31037.00;0.10;54.38;;;;;4.10;1.00;;;;;;2260152;61;2304;-90
2023/01/22 04:42:05;981399.00;3.27;1699.55;18557.00;0.06;32.77;;;;;4.20;1.00;;;;;;2259644;61;1469;-87
2023/01/22 04:44:56;1208689.00;4.03;2105.94;144284.00;0.48;249.96;;;;;4.20;1.00;;;;;;2263922;40;3670;-88
2023/01/22 04:47:23;536802.00;1.79;925.21;7208.00;0.02;13.11;;;;;4.20;1.00;;;;;;2261808;61;1327;-87
2023/01/22 04:49:50;333626.00;1.11;575.72;0.00;0.00;0.62;;;;;4.40;1.00;;;;;;2268129;40;3610;-88
2023/01/22 04:52:18;349875.00;1.17;603.65;0.00;0.00;0.62;;;;;4.30;1.00;;;;;;2267824;61;1994;-87
2023/01/22 04:54:46;507102.00;1.69;874.05;0.00;0.00;0.62;;;;;4.30;1.00;;;;;;2264107;61;1558;-88
2023/01/22 04:57:13;789987.00;2.63;1363.67;29627.00;0.10;51.94;;;;;4.20;1.00;;;;;;2264135;61;1685;-87
2023/01/22 04:59:40;1038287.00;3.46;1800.40;59384.00;0.20;103.41;;;;;4.20;1.00;;;;;;2264026;61;1614;-88
2023/01/22 05:02:07;798530.00;2.66;1378.56;40084.00;0.13;70.03;;;;;4.20;1.00;;;;;;2263931;61;1135;-87
2023/01/22 05:04:34;877507.00;2.93;1516.65;21038.00;0.07;37.07;;;;;4.30;1.00;;;;;;2263945;61;1308;-88
2023/01/22 05:07:01;1172991.00;3.91;2041.46;38698.00;0.13;67.64;;;;;4.40;1.00;;;;;;2263843;61;969;-89
2023/01/22 05:09:28;781056.00;2.60;1348.10;56006.00;0.19;97.57;;;;;4.30;1.00;;;;;;2264762;61;1065;-88
2023/01/22 05:11:56;1131232.00;3.77;1966.37;44597.00;0.15;77.84;;;;;4.20;1.00;;;;;;2264732;61;1057;-88
2023/01/22 05:14:23;799603.00;2.67;1380.43;41310.00;0.14;72.15;;;;;4.30;1.00;;;;;;2264506;61;2027;-89
2023/01/22 05:16:50;1323902.00;4.41;2315.92;147114.00;0.49;254.83;;;;;4.30;1.00;;;;;;2264668;61;1514;-89
2023/01/22 05:19:17;872088.00;2.91;1507.15;71206.00;0.24;123.84;;;;;4.40;1.00;;;;;;2264615;61;936;-86
2023/01/22 05:24:12;1189288.00;3.96;2070.86;74075.00;0.25;128.80;;;;;4.20;1.00;;;;;;2262750;61;1424;-88
2023/01/22 05:29:08;1555096.00;5.18;2747.23;51456.00;0.17;89.70;;;;;4.20;1.00;;;;;;2266481;61;1484;-87
2023/01/22 05:31:35;1206991.00;4.02;2102.87;91440.00;0.30;158.79;;;;;4.30;1.00;;;;;;2264585;61;1422;-88
2023/01/22 05:36:31;1059415.00;3.53;1837.99;61106.00;0.20;106.39;;;;;4.30;1.00;;;;;;2266423;61;1413;-88
2023/01/22 05:38:58;1079578.00;3.60;1873.94;46326.00;0.15;80.83;;;;;4.20;1.00;;;;;;2264632;61;957;-88
2023/01/22 05:41:25;1180427.00;3.93;2054.87;33509.00;0.11;58.66;;;;;4.30;1.00;;;;;;2264629;61;1560;-86
2023/01/22 05:43:52;1055885.00;3.52;1831.71;71527.00;0.24;124.40;;;;;4.30;1.00;;;;;;2261537;61;1571;-87
2023/01/22 05:46:20;1577387.00;5.26;2789.60;98117.00;0.33;170.32;;;;;4.40;1.00;;;;;;2260673;61;1584;-90
2023/01/22 05:48:47;1393874.00;4.65;2444.97;150574.00;0.50;260.80;;;;;4.30;1.00;;;;;;2260459;61;1102;-87
2023/01/22 05:51:14;1273748.00;4.25;2224.14;116097.00;0.39;201.35;;;;;4.30;1.00;;;;;;2260514;61;1010;-87
2023/01/22 05:53:41;1413384.00;4.71;2481.17;44293.00;0.15;77.32;;;;;4.50;1.00;;;;;;2260454;61;1999;-90
2023/01/22 05:56:10;1073826.00;3.58;1863.68;91719.00;0.31;159.28;;;;;4.30;1.00;;;;;;2260565;61;957;-89
2023/01/22 05:58:36;1183918.00;3.95;2061.17;117381.00;0.39;203.56;;;;;4.30;1.00;;;;;;2260504;61;1135;-90
2023/01/22 06:01:04;1535743.00;5.12;2710.56;58966.00;0.20;102.69;;;;;4.40;1.00;;;;;;2260527;61;1060;-89
2023/01/22 06:03:33;1750485.00;5.83;3123.94;196620.00;0.66;340.11;;;;;4.60;1.00;;;;;;2260557;61;1286;-88
2023/01/22 06:06:00;1307699.00;4.36;2286.20;165469.00;0.55;286.46;;;;;4.60;1.00;;;;;;2260509;61;2013;-89
2023/01/22 06:08:28;1359004.00;4.53;2380.50;130184.00;0.43;225.65;;;;;4.60;1.00;;;;;;2260615;61;987;-89
2023/01/22 06:11:02;1270367.00;4.23;2217.98;156914.00;0.52;271.72;;;;;4.60;1.00;;;;;;2260503;61;955;-89
2023/01/22 06:13:29;1161475.00;3.87;2020.72;67598.00;0.23;117.61;;;;;4.60;1.00;;;;;;2260399;61;1932;-87
2023/01/22 06:15:56;1026017.00;3.42;1778.61;47737.00;0.16;83.27;;;;;4.60;1.00;;;;;;2260422;61;1095;-88
2023/01/22 06:18:24;1360545.00;4.54;2383.35;45101.00;0.15;78.71;;;;;4.40;1.00;;;;;;2260384;61;2153;-88
2023/01/22 06:20:52;1268514.00;4.23;2214.60;76286.00;0.25;132.62;;;;;4.50;1.00;;;;;;2260413;61;1552;-90
2023/01/22 06:23:21;1123350.00;3.74;1952.23;964.00;0.00;2.29;;;;;4.60;1.00;;;;;;2260451;61;1293;-88
2023/01/22 06:25:52;1568092.00;5.23;2771.91;22564.00;0.08;39.71;;;;;4.50;1.00;;;;;;2260416;61;1405;-88
2023/01/22 06:28:19;1105029.00;3.68;1919.42;19170.00;0.06;33.83;;;;;4.40;1.00;;;;;;2260536;61;935;-87
2023/01/22 06:30:46;947715.00;3.16;1640.08;0.00;0.00;0.62;;;;;4.40;1.00;;;;;;2260435;61;1642;-89
2023/01/22 06:40:42;1553037.00;5.18;2743.32;0.00;0.00;0.62;;;;;4.30;1.00;;;;;;2266438;61;1195;-88
2023/01/22 06:43:09;1456607.00;4.86;2561.73;101575.00;0.34;176.29;;;;;4.20;1.00;;;;;;2262611;61;1543;-88
2023/01/22 06:48:06;1405659.00;4.69;2466.82;20535.00;0.07;36.20;;;;;4.30;1.00;;;;;;2266539;61;1333;-88
2023/01/22 06:50:33;1214466.00;4.05;2116.40;64053.00;0.21;111.48;;;;;4.30;1.00;;;;;;2270817;55;3767;-89
2023/01/22 07:48:10;655442.00;2.18;1130.05;0.00;0.00;0.62;;;;;4.60;1.00;;;;;;2266418;61;1230;-88
2023/01/22 07:50:39;317465.00;1.06;547.94;0.00;0.00;0.62;;;;;4.60;1.00;;;;;;2264791;61;1397;-90
2023/01/22 07:53:06;565920.00;1.89;975.41;0.00;0.00;0.62;;;;;4.60;1.00;;;;;;2263232;61;1916;-90
2023/01/22 07:55:33;350684.00;1.17;605.04;0.00;0.00;0.62;;;;;4.60;1.00;;;;;;2260853;61;842;-92
2023/01/22 08:36:53;1276893.00;4.26;2229.88;95499.00;0.32;165.80;;;;;4.80;1.00;;;;;;879929;41;3427;-90
2023/01/22 10:40:30;2110807.00;7.04;3854.39;125338.00;0.42;217.29;;;;;8.50;1.00;;;;;;2319877;41;3828;-88
2023/01/22 11:35:51;1012176.00;3.37;1754.05;96677.00;0.32;167.84;;;;;6.70;1.00;;;;;;2278478;55;3735;-89
2023/01/22 13:01:43;683042.00;2.28;1177.84;0.00;0.00;0.62;;;;;4.70;1.00;;;;;;2266288;61;943;-90
2023/01/22 13:11:40;1593340.00;5.31;2820.02;114240.00;0.38;198.15;;;;;5.10;1.00;;;;;;2266306;61;1336;-90
2023/01/22 13:14:18;1918763.00;6.40;3458.83;250803.00;0.84;433.33;;;;;5.30;1.00;;;;;;2259997;61;1984;-92
2023/01/22 13:19:21;1583006.00;5.28;2800.31;60780.00;0.20;105.83;;;;;5.40;1.00;;;;;;2266251;61;1300;-91
2023/01/22 14:01:47;2011834.00;6.71;3648.65;139493.00;0.46;241.70;;;;;5.80;1.00;;;;;;2495509;55;3509;31
2023/01/22 14:09:39;2301839.00;7.67;4263.64;190961.00;0.64;330.36;;;;;6.30;1.00;;;;;;2495354;55;3579;31
2023/01/22 14:29:46;1381660.00;4.61;2422.35;111179.00;0.37;192.86;;;;;6.20;1.00;;;;;;2497557;55;3583;31
2023/01/22 14:42:21;1318317.00;4.39;2305.67;110603.00;0.37;191.87;;;;;6.60;1.00;;;;;;2266280;61;1298;-89
2023/01/22 14:49:54;1223789.00;4.08;2133.29;92469.00;0.31;160.57;;;;;6.60;1.00;;;;;;2266781;61;1183;-89
2023/01/22 14:52:21;627554.00;2.09;1081.82;102051.00;0.34;177.11;;;;;6.70;1.00;;;;;;2264881;61;1355;-89
2023/01/22 14:54:47;707167.00;2.36;1219.67;105322.00;0.35;182.76;;;;;6.70;1.00;;;;;;2260817;61;1912;-89
2023/01/22 14:57:14;695704.00;2.32;1199.79;108592.00;0.36;188.40;;;;;6.70;1.00;;;;;;2260917;61;945;-88
2023/01/22 14:59:41;420480.00;1.40;725.02;98868.00;0.33;171.62;;;;;6.70;1.00;;;;;;2260898;61;767;-89
2023/01/22 15:02:10;487515.00;1.63;840.33;127530.00;0.43;221.07;;;;;6.60;1.00;;;;;;2260973;61;919;-89
2023/01/22 15:04:39;673575.00;2.25;1161.44;102657.00;0.34;178.16;;;;;6.70;1.00;;;;;;2260826;61;1296;-88
2023/01/22 15:07:07;521621.00;1.74;899.06;88634.00;0.30;153.95;;;;;6.80;1.00;;;;;;2260929;61;1552;-91
2023/01/22 15:09:37;398208.00;1.33;686.72;85744.00;0.29;148.96;;;;;6.70;1.00;;;;;;2260967;61;1004;-89
2023/01/22 15:12:07;378459.00;1.26;652.78;74591.00;0.25;129.69;;;;;6.60;1.00;;;;;;2260904;61;1420;-89
2023/01/22 15:14:35;594014.00;1.98;1023.89;1708.00;0.01;3.58;;;;;6.50;1.00;;;;;;2260855;61;2014;-89
2023/01/22 15:17:02;397045.00;1.32;684.73;0.00;0.00;0.62;;;;;6.40;1.00;;;;;;2260786;61;1504;-90
2023/01/22 15:19:31;421303.00;1.40;726.43;0.00;0.00;0.62;;;;;6.50;1.00;;;;;;2260894;61;1636;-90
2023/01/22 15:21:58;405948.00;1.35;700.03;0.00;0.00;0.62;;;;;6.60;1.00;;;;;;2260792;61;919;-89
2023/01/22 15:24:26;457032.00;1.52;787.88;0.00;0.00;0.62;;;;;6.50;1.00;;;;;;2260821;61;1581;-86
2023/01/22 15:26:53;265123.00;0.88;457.96;0.00;0.00;0.62;;;;;6.40;1.00;;;;;;2260808;61;1075;-86
2023/01/22 15:29:20;357064.00;1.19;616.00;0.00;0.00;0.62;;;;;6.30;1.00;;;;;;2260845;61;2149;-88
2023/01/22 15:31:48;446171.00;1.49;769.20;0.00;0.00;0.62;;;;;6.20;1.00;;;;;;2260775;61;960;-88
2023/01/22 15:54:25;568455.00;1.89;979.78;0.00;0.00;0.62;;;;;5.30;1.00;;;;;;2266949;61;1894;-88
2023/01/22 16:01:57;653766.00;2.18;1127.15;0.00;0.00;0.62;;;;;5.80;1.00;;;;;;2266343;61;1210;-87
2023/01/22 16:46:59;689830.00;2.30;1189.61;0.00;0.00;0.62;;;;;5.90;1.00;;;;;;1599198;40;3420;-89
2023/01/22 17:04:35;746068.00;2.49;1287.22;0.00;0.00;0.62;;;;;6.20;1.00;;;;;;2261999;61;1346;-87
2023/01/22 17:16:59;1595844.00;5.32;2824.80;18382.00;0.06;32.47;;;;;5.90;1.00;;;;;;2266350;61;1389;-87
2023/01/22 17:31:49;1714903.00;5.72;3054.42;116884.00;0.39;202.71;;;;;5.80;1.00;;;;;;2265849;61;1410;-88
2023/01/22 17:44:21;1016772.00;3.39;1762.20;102932.00;0.34;178.63;;;;;6.20;1.00;;;;;;2263333;61;1298;-87
2023/01/22 18:09:20;118625016.00;395.42;67619128.00;98192.00;0.33;170.45;;;;;6.40;1.00;;;;;;2266158;61;1433;-88
2023/01/22 18:11:48;475260.00;1.58;819.24;101902.00;0.34;176.85;;;;;6.50;1.00;;;;;;2264441;61;1086;-89
2023/01/22 18:14:21;315860.00;1.05;545.18;0.00;0.00;0.62;;;;;6.60;1.00;;;;;;2260749;61;1993;-88
2023/01/22 18:19:17;994453.00;3.31;1722.65;66341.00;0.22;115.44;;;;;6.50;1.00;;;;;;2266275;61;1400;-87
2023/01/22 18:21:44;534961.00;1.78;922.04;0.00;0.00;0.62;;;;;6.50;1.00;;;;;;2264504;61;1193;-88
2023/01/22 18:24:12;389074.00;1.30;671.02;0.00;0.00;0.62;;;;;6.40;1.00;;;;;;2260909;61;1384;-87
2023/01/22 18:36:43;523976.00;1.75;903.11;0.00;0.00;0.62;;;;;6.10;1.00;;;;;;2266556;61;1350;-87
2023/01/22 18:41:39;998671.00;3.33;1730.12;0.00;0.00;0.62;;;;;6.20;1.00;;;;;;2266457;61;1302;-88
2023/01/22 18:44:08;179654.00;0.60;310.89;0.00;0.00;0.62;;;;;6.30;1.00;;;;;;2261367;61;1570;-90
2023/01/22 18:59:28;1267011.00;4.22;2211.86;129540.00;0.43;224.54;;;;;6.10;1.00;;;;;;2266707;61;1308;-88
2023/01/22 19:52:17;992555.00;3.31;1719.29;0.00;0.00;0.62;;;;;5.10;1.00;;;;;;2266233;61;1097;-86
2023/01/22 21:10:22;1116595.00;3.72;1940.13;0.00;0.00;0.62;;;;;2.90;1.00;;;;;;2267044;61;963;-88
2023/01/22 21:23:42;1666076.00;5.55;2959.70;104805.00;0.35;181.87;;;;;3.30;1.00;;;;;;2264224;61;1366;-89
2023/01/22 21:26:15;1338496.00;4.46;2342.73;45810.00;0.15;79.94;;;;;3.40;1.00;;;;;;2261246;61;1718;-88
2023/01/22 22:09:08;1098460.00;3.66;1907.67;7525.00;0.03;13.66;;;;;3.20;1.00;;;;;;2091106;40;3329;-88
2023/01/22 22:11:58;1363743.00;4.55;2389.25;48389.00;0.16;84.40;;;;;3.20;1.00;;;;;;2266866;61;1143;-91
2023/01/22 23:02:09;872148.00;2.91;1507.25;0.00;0.00;0.62;;;;;3.50;1.00;;;;;;2266497;61;995;-88
2023/01/22 23:34:37;632185.00;2.11;1089.83;0.00;0.00;0.62;;;;;3.50;1.00;;;;;;2262386;61;1941;-87
2023/01/22 23:37:04;479826.00;1.60;827.10;0.00;0.00;0.62;;;;;3.70;1.00;;;;;;2260777;61;418;-87
2023/01/22 23:59:36;653262.00;2.18;1126.28;0.00;0.00;0.62;;;;;3.70;1.00;;;;;;2266587;61;999;-88
